sensor_id;sensor_type;location;lat;lon;timestamp;temperature;humidity
68943;DHT22;60852;52.190;4.422;2023-02-21T00:01:41;9.76;86.66
68943;DHT22;60852;52.190;4.422;2023-02-21T00:04:25;9.69;86.67
68943;DHT22;60852;52.190;4.422;2023-02-21T00:07:09;9.71;86.62
68943;DHT22;60852;52.190;4.422;2023-02-21T00:09:53;9.73;86.53
68943;DHT22;60852;52.190;4.422;2023-02-21T00:12:37;9.69;86.56
68943;DHT22;60852;52.190;4.422;2023-02-21T00:15:21;9.66;86.70
68943;DHT22;60852;52.190;4.422;2023-02-21T00:18:05;9.61;87.06
68943;DHT22;60852;52.190;4.422;2023-02-21T00:20:49;9.63;86.89
68943;DHT22;60852;52.190;4.422;2023-02-21T00:23:35;9.58;86.99
68943;DHT22;60852;52.190;4.422;2023-02-21T00:26:20;9.63;86.93
68943;DHT22;60852;52.190;4.422;2023-02-21T00:29:04;9.69;86.84
68943;DHT22;60852;52.190;4.422;2023-02-21T00:31:48;9.69;86.65
68943;DHT22;60852;52.190;4.422;2023-02-21T00:34:32;9.63;86.80
68943;DHT22;60852;52.190;4.422;2023-02-21T00:37:17;9.65;86.97
68943;DHT22;60852;52.190;4.422;2023-02-21T00:40:01;9.59;87.18
68943;DHT22;60852;52.190;4.422;2023-02-21T00:42:45;9.63;87.21
68943;DHT22;60852;52.190;4.422;2023-02-21T00:45:29;9.66;87.01
68943;DHT22;60852;52.190;4.422;2023-02-21T00:48:19;9.69;86.83
68943;DHT22;60852;52.190;4.422;2023-02-21T00:51:03;9.71;86.88
68943;DHT22;60852;52.190;4.422;2023-02-21T00:53:47;9.65;87.08
68943;DHT22;60852;52.190;4.422;2023-02-21T00:56:31;9.66;87.06
68943;DHT22;60852;52.190;4.422;2023-02-21T00:59:15;9.69;87.09
68943;DHT22;60852;52.190;4.422;2023-02-21T01:01:59;9.68;87.01
68943;DHT22;60852;52.190;4.422;2023-02-21T01:04:43;9.69;86.84
68943;DHT22;60852;52.190;4.422;2023-02-21T01:07:27;9.68;86.87
68943;DHT22;60852;52.190;4.422;2023-02-21T01:10:11;9.68;86.90
68943;DHT22;60852;52.190;4.422;2023-02-21T01:12:55;9.72;87.10
68943;DHT22;60852;52.190;4.422;2023-02-21T01:15:39;9.71;86.90
68943;DHT22;60852;52.190;4.422;2023-02-21T01:18:23;9.65;87.03
68943;DHT22;60852;52.190;4.422;2023-02-21T01:21:12;9.58;87.31
68943;DHT22;60852;52.190;4.422;2023-02-21T01:23:56;9.69;87.28
68943;DHT22;60852;52.190;4.422;2023-02-21T01:26:40;9.69;87.05
68943;DHT22;60852;52.190;4.422;2023-02-21T01:29:24;9.78;87.05
68943;DHT22;60852;52.190;4.422;2023-02-21T01:32:08;9.78;86.77
68943;DHT22;60852;52.190;4.422;2023-02-21T01:34:52;9.69;87.08
68943;DHT22;60852;52.190;4.422;2023-02-21T01:37:39;9.69;87.04
68943;DHT22;60852;52.190;4.422;2023-02-21T01:40:23;9.71;87.09
68943;DHT22;60852;52.190;4.422;2023-02-21T01:43:33;9.72;87.10
68943;DHT22;60852;52.190;4.422;2023-02-21T01:46:19;9.69;87.08
68943;DHT22;60852;52.190;4.422;2023-02-21T01:49:16;9.72;87.14
68943;DHT22;60852;52.190;4.422;2023-02-21T01:52:03;9.66;87.38
68943;DHT22;60852;52.190;4.422;2023-02-21T01:54:51;9.73;87.23
68943;DHT22;60852;52.190;4.422;2023-02-21T01:57:38;9.78;87.06
68943;DHT22;60852;52.190;4.422;2023-02-21T02:00:23;9.82;86.91
68943;DHT22;60852;52.190;4.422;2023-02-21T02:03:10;9.79;86.99
68943;DHT22;60852;52.190;4.422;2023-02-21T02:05:58;9.75;87.19
68943;DHT22;60852;52.190;4.422;2023-02-21T02:08:43;9.68;87.29
68943;DHT22;60852;52.190;4.422;2023-02-21T02:14:35;9.72;87.30
68943;DHT22;60852;52.190;4.422;2023-02-21T02:25:50;9.63;87.33
68943;DHT22;60852;52.190;4.422;2023-02-21T02:31:38;9.63;87.57
68943;DHT22;60852;52.190;4.422;2023-02-21T02:34:32;9.59;87.63
68943;DHT22;60852;52.190;4.422;2023-02-21T02:40:04;9.63;87.50
68943;DHT22;60852;52.190;4.422;2023-02-21T02:42:43;9.63;87.57
68943;DHT22;60852;52.190;4.422;2023-02-21T02:47:52;9.52;87.83
68943;DHT22;60852;52.190;4.422;2023-02-21T02:50:21;9.62;87.85
68943;DHT22;60852;52.190;4.422;2023-02-21T02:52:52;9.59;87.72
68943;DHT22;60852;52.190;4.422;2023-02-21T02:57:53;9.58;87.82
68943;DHT22;60852;52.190;4.422;2023-02-21T03:00:19;9.58;87.97
68943;DHT22;60852;52.190;4.422;2023-02-21T03:03:06;9.63;87.76
68943;DHT22;60852;52.190;4.422;2023-02-21T03:05:53;9.62;87.78
68943;DHT22;60852;52.190;4.422;2023-02-21T03:08:26;9.62;87.65
68943;DHT22;60852;52.190;4.422;2023-02-21T03:11:10;9.62;87.55
68943;DHT22;60852;52.190;4.422;2023-02-21T03:14:04;9.72;87.39
68943;DHT22;60852;52.190;4.422;2023-02-21T03:16:46;9.69;87.18
68943;DHT22;60852;52.190;4.422;2023-02-21T03:19:36;9.66;87.36
68943;DHT22;60852;52.190;4.422;2023-02-21T03:22:10;9.65;87.38
68943;DHT22;60852;52.190;4.422;2023-02-21T03:24:39;9.59;87.47
68943;DHT22;60852;52.190;4.422;2023-02-21T03:27:07;9.63;87.64
68943;DHT22;60852;52.190;4.422;2023-02-21T03:29:36;9.66;87.55
68943;DHT22;60852;52.190;4.422;2023-02-21T03:32:08;9.66;87.66
68943;DHT22;60852;52.190;4.422;2023-02-21T03:34:39;9.69;87.52
68943;DHT22;60852;52.190;4.422;2023-02-21T03:37:08;9.69;87.40
68943;DHT22;60852;52.190;4.422;2023-02-21T03:39:34;9.69;87.46
68943;DHT22;60852;52.190;4.422;2023-02-21T03:42:00;9.68;87.42
68943;DHT22;60852;52.190;4.422;2023-02-21T03:44:25;9.66;87.46
68943;DHT22;60852;52.190;4.422;2023-02-21T03:46:50;9.63;87.46
68943;DHT22;60852;52.190;4.422;2023-02-21T03:49:16;9.65;87.47
68943;DHT22;60852;52.190;4.422;2023-02-21T03:51:41;9.65;87.52
68943;DHT22;60852;52.190;4.422;2023-02-21T03:54:07;9.66;87.56
68943;DHT22;60852;52.190;4.422;2023-02-21T03:56:32;9.65;87.47
68943;DHT22;60852;52.190;4.422;2023-02-21T03:58:58;9.56;87.83
68943;DHT22;60852;52.190;4.422;2023-02-21T04:01:23;9.52;88.03
68943;DHT22;60852;52.190;4.422;2023-02-21T04:03:49;9.61;87.89
68943;DHT22;60852;52.190;4.422;2023-02-21T04:06:14;9.66;87.77
68943;DHT22;60852;52.190;4.422;2023-02-21T04:08:40;9.69;87.48
68943;DHT22;60852;52.190;4.422;2023-02-21T04:11:05;9.65;87.59
68943;DHT22;60852;52.190;4.422;2023-02-21T04:13:31;9.65;87.50
68943;DHT22;60852;52.190;4.422;2023-02-21T04:15:56;9.68;87.66
68943;DHT22;60852;52.190;4.422;2023-02-21T04:18:22;9.65;87.46
68943;DHT22;60852;52.190;4.422;2023-02-21T04:20:47;9.68;87.57
68943;DHT22;60852;52.190;4.422;2023-02-21T04:23:20;9.68;87.34
68943;DHT22;60852;52.190;4.422;2023-02-21T04:25:46;9.72;87.46
68943;DHT22;60852;52.190;4.422;2023-02-21T04:28:12;9.73;87.25
68943;DHT22;60852;52.190;4.422;2023-02-21T04:30:38;9.69;87.35
68943;DHT22;60852;52.190;4.422;2023-02-21T04:33:03;9.69;87.26
68943;DHT22;60852;52.190;4.422;2023-02-21T04:35:29;9.63;87.42
68943;DHT22;60852;52.190;4.422;2023-02-21T04:37:55;9.63;87.68
68943;DHT22;60852;52.190;4.422;2023-02-21T04:40:20;9.63;87.51
68943;DHT22;60852;52.190;4.422;2023-02-21T04:42:46;9.62;87.55
68943;DHT22;60852;52.190;4.422;2023-02-21T04:45:11;9.63;87.54
68943;DHT22;60852;52.190;4.422;2023-02-21T04:47:37;9.62;87.70
68943;DHT22;60852;52.190;4.422;2023-02-21T04:50:03;9.66;87.63
68943;DHT22;60852;52.190;4.422;2023-02-21T04:52:30;9.73;87.37
68943;DHT22;60852;52.190;4.422;2023-02-21T04:54:55;9.63;87.46
68943;DHT22;60852;52.190;4.422;2023-02-21T04:57:20;9.63;87.63
68943;DHT22;60852;52.190;4.422;2023-02-21T04:59:46;9.65;87.50
68943;DHT22;60852;52.190;4.422;2023-02-21T05:02:12;9.75;87.35
68943;DHT22;60852;52.190;4.422;2023-02-21T05:04:37;9.72;87.25
68943;DHT22;60852;52.190;4.422;2023-02-21T05:07:04;9.68;87.25
68943;DHT22;60852;52.190;4.422;2023-02-21T05:09:30;9.66;87.50
68943;DHT22;60852;52.190;4.422;2023-02-21T05:11:55;9.68;87.41
68943;DHT22;60852;52.190;4.422;2023-02-21T05:14:21;9.69;87.48
68943;DHT22;60852;52.190;4.422;2023-02-21T05:16:46;9.71;87.36
68943;DHT22;60852;52.190;4.422;2023-02-21T05:19:12;9.79;87.42
68943;DHT22;60852;52.190;4.422;2023-02-21T05:21:37;9.92;87.02
68943;DHT22;60852;52.190;4.422;2023-02-21T05:24:04;9.87;86.74
68943;DHT22;60852;52.190;4.422;2023-02-21T05:26:35;9.73;86.85
68943;DHT22;60852;52.190;4.422;2023-02-21T05:29:00;9.66;87.38
68943;DHT22;60852;52.190;4.422;2023-02-21T05:31:27;9.65;87.50
68943;DHT22;60852;52.190;4.422;2023-02-21T05:33:53;9.66;87.28
68943;DHT22;60852;52.190;4.422;2023-02-21T05:36:19;9.69;87.35
68943;DHT22;60852;52.190;4.422;2023-02-21T05:38:50;9.76;87.39
68943;DHT22;60852;52.190;4.422;2023-02-21T05:41:17;9.81;87.24
68943;DHT22;60852;52.190;4.422;2023-02-21T05:43:47;9.79;87.11
68943;DHT22;60852;52.190;4.422;2023-02-21T05:46:27;9.79;86.95
68943;DHT22;60852;52.190;4.422;2023-02-21T05:48:55;9.76;87.07
68943;DHT22;60852;52.190;4.422;2023-02-21T05:51:21;9.75;87.15
68943;DHT22;60852;52.190;4.422;2023-02-21T05:53:48;9.78;87.20
68943;DHT22;60852;52.190;4.422;2023-02-21T05:56:15;9.83;86.97
68943;DHT22;60852;52.190;4.422;2023-02-21T05:58:40;9.82;86.93
68943;DHT22;60852;52.190;4.422;2023-02-21T06:01:06;9.87;86.93
68943;DHT22;60852;52.190;4.422;2023-02-21T06:03:32;9.81;86.83
68943;DHT22;60852;52.190;4.422;2023-02-21T06:05:57;9.82;87.03
68943;DHT22;60852;52.190;4.422;2023-02-21T06:08:23;9.81;86.90
68943;DHT22;60852;52.190;4.422;2023-02-21T06:10:50;9.83;86.95
68943;DHT22;60852;52.190;4.422;2023-02-21T06:13:16;9.87;86.89
68943;DHT22;60852;52.190;4.422;2023-02-21T06:15:42;9.83;86.64
68943;DHT22;60852;52.190;4.422;2023-02-21T06:18:07;9.73;87.05
68943;DHT22;60852;52.190;4.422;2023-02-21T06:20:32;9.71;87.12
68943;DHT22;60852;52.190;4.422;2023-02-21T06:22:58;9.71;87.17
68943;DHT22;60852;52.190;4.422;2023-02-21T06:25:23;9.69;87.29
68943;DHT22;60852;52.190;4.422;2023-02-21T06:27:49;9.76;87.20
68943;DHT22;60852;52.190;4.422;2023-02-21T06:30:14;9.82;87.11
68943;DHT22;60852;52.190;4.422;2023-02-21T06:32:41;9.86;87.15
68943;DHT22;60852;52.190;4.422;2023-02-21T06:35:07;9.97;86.91
68943;DHT22;60852;52.190;4.422;2023-02-21T06:37:33;9.86;86.53
68943;DHT22;60852;52.190;4.422;2023-02-21T06:39:59;9.82;86.81
68943;DHT22;60852;52.190;4.422;2023-02-21T06:42:25;9.76;87.00
68943;DHT22;60852;52.190;4.422;2023-02-21T06:44:50;9.79;87.03
68943;DHT22;60852;52.190;4.422;2023-02-21T06:47:16;9.73;87.15
68943;DHT22;60852;52.190;4.422;2023-02-21T06:49:42;9.79;87.12
68943;DHT22;60852;52.190;4.422;2023-02-21T06:52:08;9.75;86.95
68943;DHT22;60852;52.190;4.422;2023-02-21T06:54:34;9.76;87.22
68943;DHT22;60852;52.190;4.422;2023-02-21T06:56:59;9.85;87.23
68943;DHT22;60852;52.190;4.422;2023-02-21T06:59:27;9.92;87.03
68943;DHT22;60852;52.190;4.422;2023-02-21T07:01:53;9.89;86.78
68943;DHT22;60852;52.190;4.422;2023-02-21T07:04:19;9.90;86.76
68943;DHT22;60852;52.190;4.422;2023-02-21T07:06:44;9.89;86.89
68943;DHT22;60852;52.190;4.422;2023-02-21T07:09:10;9.89;87.01
68943;DHT22;60852;52.190;4.422;2023-02-21T07:11:35;9.87;86.86
68943;DHT22;60852;52.190;4.422;2023-02-21T07:14:01;9.92;86.88
68943;DHT22;60852;52.190;4.422;2023-02-21T07:16:26;10.02;86.76
68943;DHT22;60852;52.190;4.422;2023-02-21T07:18:52;10.02;86.47
68943;DHT22;60852;52.190;4.422;2023-02-21T07:21:20;10.00;86.55
68943;DHT22;60852;52.190;4.422;2023-02-21T07:23:47;9.94;86.35
68943;DHT22;60852;52.190;4.422;2023-02-21T07:26:13;9.90;86.52
68943;DHT22;60852;52.190;4.422;2023-02-21T07:28:39;9.87;86.84
68943;DHT22;60852;52.190;4.422;2023-02-21T07:31:05;9.86;87.00
68943;DHT22;60852;52.190;4.422;2023-02-21T07:33:30;9.94;86.81
68943;DHT22;60852;52.190;4.422;2023-02-21T07:35:56;9.99;86.68
68943;DHT22;60852;52.190;4.422;2023-02-21T07:38:26;10.09;86.52
68943;DHT22;60852;52.190;4.422;2023-02-21T07:40:59;10.02;86.17
68943;DHT22;60852;52.190;4.422;2023-02-21T07:43:26;10.03;86.16
68943;DHT22;60852;52.190;4.422;2023-02-21T07:45:53;10.03;86.26
68943;DHT22;60852;52.190;4.422;2023-02-21T07:48:18;10.07;86.28
68943;DHT22;60852;52.190;4.422;2023-02-21T07:50:44;10.12;86.03
68943;DHT22;60852;52.190;4.422;2023-02-21T07:53:12;10.09;85.90
68943;DHT22;60852;52.190;4.422;2023-02-21T07:55:38;10.06;86.06
68943;DHT22;60852;52.190;4.422;2023-02-21T07:58:04;10.07;86.16
68943;DHT22;60852;52.190;4.422;2023-02-21T08:00:30;10.10;86.10
68943;DHT22;60852;52.190;4.422;2023-02-21T08:02:56;10.13;86.03
68943;DHT22;60852;52.190;4.422;2023-02-21T08:05:21;10.14;85.93
68943;DHT22;60852;52.190;4.422;2023-02-21T08:07:47;10.20;85.79
68943;DHT22;60852;52.190;4.422;2023-02-21T08:10:25;10.16;85.75
68943;DHT22;60852;52.190;4.422;2023-02-21T08:12:51;10.13;85.73
68943;DHT22;60852;52.190;4.422;2023-02-21T08:15:17;10.13;85.90
68943;DHT22;60852;52.190;4.422;2023-02-21T08:17:43;10.14;85.74
68943;DHT22;60852;52.190;4.422;2023-02-21T08:20:09;10.17;85.81
68943;DHT22;60852;52.190;4.422;2023-02-21T08:22:37;10.17;85.70
68943;DHT22;60852;52.190;4.422;2023-02-21T08:25:03;10.20;85.68
68943;DHT22;60852;52.190;4.422;2023-02-21T08:27:28;10.17;85.76
68943;DHT22;60852;52.190;4.422;2023-02-21T08:29:54;10.13;85.69
68943;DHT22;60852;52.190;4.422;2023-02-21T08:32:20;10.13;85.78
68943;DHT22;60852;52.190;4.422;2023-02-21T08:34:47;10.14;85.79
68943;DHT22;60852;52.190;4.422;2023-02-21T08:37:13;10.17;85.80
68943;DHT22;60852;52.190;4.422;2023-02-21T08:39:49;10.18;85.61
68943;DHT22;60852;52.190;4.422;2023-02-21T08:42:16;10.20;85.62
68943;DHT22;60852;52.190;4.422;2023-02-21T08:44:43;10.18;85.72
68943;DHT22;60852;52.190;4.422;2023-02-21T08:47:10;10.24;85.63
68943;DHT22;60852;52.190;4.422;2023-02-21T08:49:35;10.24;85.51
68943;DHT22;60852;52.190;4.422;2023-02-21T08:52:05;10.29;85.37
68943;DHT22;60852;52.190;4.422;2023-02-21T08:54:31;10.30;85.50
68943;DHT22;60852;52.190;4.422;2023-02-21T08:56:56;10.23;85.33
68943;DHT22;60852;52.190;4.422;2023-02-21T08:59:23;10.30;85.46
68943;DHT22;60852;52.190;4.422;2023-02-21T09:01:49;10.37;85.29
68943;DHT22;60852;52.190;4.422;2023-02-21T09:04:14;10.33;85.00
68943;DHT22;60852;52.190;4.422;2023-02-21T09:06:40;10.30;85.17
68943;DHT22;60852;52.190;4.422;2023-02-21T09:09:06;10.31;85.15
68943;DHT22;60852;52.190;4.422;2023-02-21T09:11:31;10.31;85.13
68943;DHT22;60852;52.190;4.422;2023-02-21T09:13:56;10.29;85.13
68943;DHT22;60852;52.190;4.422;2023-02-21T09:16:22;10.27;85.08
68943;DHT22;60852;52.190;4.422;2023-02-21T09:18:55;10.27;85.19
68943;DHT22;60852;52.190;4.422;2023-02-21T09:21:23;10.30;85.15
68943;DHT22;60852;52.190;4.422;2023-02-21T09:23:54;10.29;85.25
68943;DHT22;60852;52.190;4.422;2023-02-21T09:26:21;10.36;85.04
68943;DHT22;60852;52.190;4.422;2023-02-21T09:28:50;10.36;85.01
68943;DHT22;60852;52.190;4.422;2023-02-21T09:31:17;10.30;85.03
68943;DHT22;60852;52.190;4.422;2023-02-21T09:33:44;10.30;85.02
68943;DHT22;60852;52.190;4.422;2023-02-21T09:36:10;10.27;85.00
68943;DHT22;60852;52.190;4.422;2023-02-21T09:38:37;10.27;85.15
68943;DHT22;60852;52.190;4.422;2023-02-21T09:41:09;10.29;85.05
68943;DHT22;60852;52.190;4.422;2023-02-21T09:43:39;10.29;85.05
68943;DHT22;60852;52.190;4.422;2023-02-21T09:49:02;10.38;84.96
68943;DHT22;60852;52.190;4.422;2023-02-21T09:51:31;10.34;84.87
68943;DHT22;60852;52.190;4.422;2023-02-21T09:53:57;10.34;84.97
68943;DHT22;60852;52.190;4.422;2023-02-21T09:56:38;10.31;84.96
68943;DHT22;60852;52.190;4.422;2023-02-21T09:59:12;10.29;85.19
68943;DHT22;60852;52.190;4.422;2023-02-21T10:02:13;10.37;84.90
68943;DHT22;60852;52.190;4.422;2023-02-21T10:07:10;10.41;84.71
68943;DHT22;60852;52.190;4.422;2023-02-21T10:09:54;10.42;84.67
68943;DHT22;60852;52.190;4.422;2023-02-21T10:12:35;10.44;84.67
68943;DHT22;60852;52.190;4.422;2023-02-21T10:20:27;10.47;84.58
68943;DHT22;60852;52.190;4.422;2023-02-21T10:22:55;10.51;84.73
68943;DHT22;60852;52.190;4.422;2023-02-21T10:25:30;10.50;84.42
68943;DHT22;60852;52.190;4.422;2023-02-21T10:27:58;10.50;84.51
68943;DHT22;60852;52.190;4.422;2023-02-21T10:30:35;10.51;84.48
68943;DHT22;60852;52.190;4.422;2023-02-21T10:33:03;10.51;84.47
68943;DHT22;60852;52.190;4.422;2023-02-21T10:35:33;10.52;84.34
68943;DHT22;60852;52.190;4.422;2023-02-21T10:38:02;10.41;84.62
68943;DHT22;60852;52.190;4.422;2023-02-21T10:40:33;10.33;84.85
68943;DHT22;60852;52.190;4.422;2023-02-21T10:43:02;10.38;84.97
68943;DHT22;60852;52.190;4.422;2023-02-21T10:45:56;10.42;84.75
68943;DHT22;60852;52.190;4.422;2023-02-21T10:48:27;10.33;84.92
68943;DHT22;60852;52.190;4.422;2023-02-21T10:51:15;10.44;85.05
68943;DHT22;60852;52.190;4.422;2023-02-21T10:53:43;10.48;84.88
68943;DHT22;60852;52.190;4.422;2023-02-21T11:01:16;10.40;84.89
68943;DHT22;60852;52.190;4.422;2023-02-21T11:03:44;10.38;85.02
68943;DHT22;60852;52.190;4.422;2023-02-21T11:06:25;10.34;85.13
68943;DHT22;60852;52.190;4.422;2023-02-21T11:08:51;10.30;85.34
68943;DHT22;60852;52.190;4.422;2023-02-21T11:11:39;10.25;85.35
68943;DHT22;60852;52.190;4.422;2023-02-21T11:16:42;10.37;85.32
68943;DHT22;60852;52.190;4.422;2023-02-21T11:19:12;10.36;85.35
68943;DHT22;60852;52.190;4.422;2023-02-21T11:21:40;10.36;85.33
68943;DHT22;60852;52.190;4.422;2023-02-21T11:24:06;10.36;85.51
68943;DHT22;60852;52.190;4.422;2023-02-21T11:26:52;10.36;85.44
68943;DHT22;60852;52.190;4.422;2023-02-21T11:29:24;10.33;85.37
68943;DHT22;60852;52.190;4.422;2023-02-21T11:31:54;10.30;85.45
68943;DHT22;60852;52.190;4.422;2023-02-21T11:34:20;10.29;85.30
68943;DHT22;60852;52.190;4.422;2023-02-21T11:36:47;10.34;85.34
68943;DHT22;60852;52.190;4.422;2023-02-21T11:39:17;10.37;85.32
68943;DHT22;60852;52.190;4.422;2023-02-21T11:42:00;10.40;85.08
68943;DHT22;60852;52.190;4.422;2023-02-21T11:47:28;10.20;85.43
68943;DHT22;60852;52.190;4.422;2023-02-21T11:53:03;10.14;85.77
68943;DHT22;60852;52.190;4.422;2023-02-21T11:55:30;10.18;85.81
68943;DHT22;60852;52.190;4.422;2023-02-21T12:19:32;10.48;84.78
68943;DHT22;60852;52.190;4.422;2023-02-21T12:30:38;10.44;84.32
68943;DHT22;60852;52.190;4.422;2023-02-21T12:38:53;10.48;84.56
68943;DHT22;60852;52.190;4.422;2023-02-21T12:44:46;10.34;84.67
68943;DHT22;60852;52.190;4.422;2023-02-21T12:47:24;10.33;84.99
68943;DHT22;60852;52.190;4.422;2023-02-21T12:50:21;10.31;84.91
68943;DHT22;60852;52.190;4.422;2023-02-21T12:53:04;10.34;84.85
68943;DHT22;60852;52.190;4.422;2023-02-21T12:58:48;10.44;84.91
68943;DHT22;60852;52.190;4.422;2023-02-21T13:06:49;10.41;85.05
68943;DHT22;60852;52.190;4.422;2023-02-21T13:17:03;10.23;85.24
68943;DHT22;60852;52.190;4.422;2023-02-21T13:20:02;10.21;85.54
68943;DHT22;60852;52.190;4.422;2023-02-21T13:22:48;10.17;85.64
68943;DHT22;60852;52.190;4.422;2023-02-21T13:30:49;9.97;85.98
68943;DHT22;60852;52.190;4.422;2023-02-21T13:33:43;10.02;86.08
68943;DHT22;60852;52.190;4.422;2023-02-21T13:36:31;10.04;86.21
68943;DHT22;60852;52.190;4.422;2023-02-21T13:41:39;9.99;85.75
68943;DHT22;60852;52.190;4.422;2023-02-21T13:44:15;9.92;85.88
68943;DHT22;60852;52.190;4.422;2023-02-21T13:49:36;9.93;86.14
68943;DHT22;60852;52.190;4.422;2023-02-21T13:55:28;9.92;85.89
68943;DHT22;60852;52.190;4.422;2023-02-21T14:05:24;9.76;85.95
68943;DHT22;60852;52.190;4.422;2023-02-21T14:08:00;9.73;85.73
68943;DHT22;60852;52.190;4.422;2023-02-21T14:16:07;9.75;85.74
68943;DHT22;60852;52.190;4.422;2023-02-21T14:18:58;9.76;85.57
68943;DHT22;60852;52.190;4.422;2023-02-21T14:21:49;9.79;85.33
68943;DHT22;60852;52.190;4.422;2023-02-21T14:24:22;9.81;85.01
68943;DHT22;60852;52.190;4.422;2023-02-21T14:27:03;9.81;85.03
68943;DHT22;60852;52.190;4.422;2023-02-21T14:34:52;9.81;84.18
68943;DHT22;60852;52.190;4.422;2023-02-21T14:46:02;10.07;83.19
68943;DHT22;60852;52.190;4.422;2023-02-21T14:54:05;9.93;82.79
68943;DHT22;60852;52.190;4.422;2023-02-21T15:02:37;9.78;82.70
68943;DHT22;60852;52.190;4.422;2023-02-21T15:05:16;9.85;82.71
68943;DHT22;60852;52.190;4.422;2023-02-21T15:10:26;9.92;82.70
68943;DHT22;60852;52.190;4.422;2023-02-21T15:13:02;9.97;82.24
68943;DHT22;60852;52.190;4.422;2023-02-21T15:15:35;10.04;81.97
68943;DHT22;60852;52.190;4.422;2023-02-21T15:18:08;10.06;82.07
68943;DHT22;60852;52.190;4.422;2023-02-21T15:20:37;10.10;82.00
68943;DHT22;60852;52.190;4.422;2023-02-21T15:25:35;10.18;81.66
68943;DHT22;60852;52.190;4.422;2023-02-21T15:28:03;10.06;81.19
68943;DHT22;60852;52.190;4.422;2023-02-21T15:30:35;9.96;81.48
68943;DHT22;60852;52.190;4.422;2023-02-21T15:35:38;9.99;81.36
68943;DHT22;60852;52.190;4.422;2023-02-21T15:38:14;9.93;81.41
68943;DHT22;60852;52.190;4.422;2023-02-21T15:40:41;10.00;81.41
68943;DHT22;60852;52.190;4.422;2023-02-21T15:43:21;9.99;81.24
68943;DHT22;60852;52.190;4.422;2023-02-21T15:45:48;9.93;81.37
68943;DHT22;60852;52.190;4.422;2023-02-21T15:48:16;9.85;81.00
68943;DHT22;60852;52.190;4.422;2023-02-21T15:50:44;9.82;81.01
68943;DHT22;60852;52.190;4.422;2023-02-21T15:53:20;9.85;80.99
68943;DHT22;60852;52.190;4.422;2023-02-21T15:55:47;9.73;80.73
68943;DHT22;60852;52.190;4.422;2023-02-21T15:58:18;9.73;80.84
68943;DHT22;60852;52.190;4.422;2023-02-21T16:01:00;9.75;81.00
68943;DHT22;60852;52.190;4.422;2023-02-21T16:03:35;9.69;81.28
68943;DHT22;60852;52.190;4.422;2023-02-21T16:09:00;9.78;81.50
68943;DHT22;60852;52.190;4.422;2023-02-21T16:11:53;9.76;81.62
68943;DHT22;60852;52.190;4.422;2023-02-21T16:16:47;9.85;81.66
68943;DHT22;60852;52.190;4.422;2023-02-21T16:19:19;9.92;81.55
68943;DHT22;60852;52.190;4.422;2023-02-21T16:21:46;9.99;81.40
68943;DHT22;60852;52.190;4.422;2023-02-21T16:24:27;9.97;81.01
68943;DHT22;60852;52.190;4.422;2023-02-21T16:27:05;9.89;81.13
68943;DHT22;60852;52.190;4.422;2023-02-21T16:29:33;9.86;81.17
68943;DHT22;60852;52.190;4.422;2023-02-21T16:31:58;9.83;81.22
68943;DHT22;60852;52.190;4.422;2023-02-21T16:34:28;9.82;81.47
68943;DHT22;60852;52.190;4.422;2023-02-21T16:37:07;9.89;81.48
68943;DHT22;60852;52.190;4.422;2023-02-21T16:39:35;9.89;81.08
68943;DHT22;60852;52.190;4.422;2023-02-21T16:42:00;9.89;81.19
68943;DHT22;60852;52.190;4.422;2023-02-21T16:44:26;9.87;81.27
68943;DHT22;60852;52.190;4.422;2023-02-21T16:46:52;9.92;81.44
68943;DHT22;60852;52.190;4.422;2023-02-21T16:49:17;9.93;81.35
68943;DHT22;60852;52.190;4.422;2023-02-21T16:51:43;9.85;81.36
68943;DHT22;60852;52.190;4.422;2023-02-21T16:54:09;9.85;81.47
68943;DHT22;60852;52.190;4.422;2023-02-21T16:56:42;9.81;81.48
68943;DHT22;60852;52.190;4.422;2023-02-21T16:59:12;9.85;81.51
68943;DHT22;60852;52.190;4.422;2023-02-21T17:01:37;9.82;81.32
68943;DHT22;60852;52.190;4.422;2023-02-21T17:04:08;9.81;81.39
68943;DHT22;60852;52.190;4.422;2023-02-21T17:06:38;9.83;81.38
68943;DHT22;60852;52.190;4.422;2023-02-21T17:09:04;9.86;81.44
68943;DHT22;60852;52.190;4.422;2023-02-21T17:11:29;9.82;81.43
68943;DHT22;60852;52.190;4.422;2023-02-21T17:13:55;9.82;81.34
68943;DHT22;60852;52.190;4.422;2023-02-21T17:16:20;9.82;81.14
68943;DHT22;60852;52.190;4.422;2023-02-21T17:18:46;9.75;81.41
68943;DHT22;60852;52.190;4.422;2023-02-21T17:21:11;9.76;81.51
68943;DHT22;60852;52.190;4.422;2023-02-21T17:23:37;9.76;81.57
68943;DHT22;60852;52.190;4.422;2023-02-21T17:26:03;9.82;81.56
68943;DHT22;60852;52.190;4.422;2023-02-21T17:28:29;9.83;81.48
68943;DHT22;60852;52.190;4.422;2023-02-21T17:30:55;9.87;81.53
68943;DHT22;60852;52.190;4.422;2023-02-21T17:33:21;9.87;81.39
68943;DHT22;60852;52.190;4.422;2023-02-21T17:35:46;9.83;81.43
68943;DHT22;60852;52.190;4.422;2023-02-21T17:38:12;9.83;81.55
68943;DHT22;60852;52.190;4.422;2023-02-21T17:40:38;9.85;81.69
68943;DHT22;60852;52.190;4.422;2023-02-21T17:43:04;9.93;81.55
68943;DHT22;60852;52.190;4.422;2023-02-21T17:45:33;9.92;81.53
68943;DHT22;60852;52.190;4.422;2023-02-21T17:48:00;9.94;81.37
68943;DHT22;60852;52.190;4.422;2023-02-21T17:50:26;9.96;81.46
68943;DHT22;60852;52.190;4.422;2023-02-21T17:52:52;9.96;81.35
68943;DHT22;60852;52.190;4.422;2023-02-21T17:55:20;10.02;81.53
68943;DHT22;60852;52.190;4.422;2023-02-21T17:57:46;10.00;81.58
68943;DHT22;60852;52.190;4.422;2023-02-21T18:00:24;10.03;81.70
68943;DHT22;60852;52.190;4.422;2023-02-21T18:02:51;10.03;81.53
68943;DHT22;60852;52.190;4.422;2023-02-21T18:05:18;10.04;81.59
68943;DHT22;60852;52.190;4.422;2023-02-21T18:07:52;10.10;81.49
68943;DHT22;60852;52.190;4.422;2023-02-21T18:10:20;10.16;81.29
68943;DHT22;60852;52.190;4.422;2023-02-21T18:12:47;10.07;81.16
68943;DHT22;60852;52.190;4.422;2023-02-21T18:15:14;10.03;81.33
68943;DHT22;60852;52.190;4.422;2023-02-21T18:17:39;9.97;81.31
68943;DHT22;60852;52.190;4.422;2023-02-21T18:20:06;9.90;81.28
68943;DHT22;60852;52.190;4.422;2023-02-21T18:22:34;9.89;81.48
68943;DHT22;60852;52.190;4.422;2023-02-21T18:25:00;9.90;81.55
68943;DHT22;60852;52.190;4.422;2023-02-21T18:27:25;9.87;81.61
68943;DHT22;60852;52.190;4.422;2023-02-21T18:29:51;9.83;81.59
68943;DHT22;60852;52.190;4.422;2023-02-21T18:32:24;9.83;81.83
68943;DHT22;60852;52.190;4.422;2023-02-21T18:34:50;9.90;81.80
68943;DHT22;60852;52.190;4.422;2023-02-21T18:37:16;9.96;81.83
68943;DHT22;60852;52.190;4.422;2023-02-21T18:39:42;10.02;81.51
68943;DHT22;60852;52.190;4.422;2023-02-21T18:42:07;9.99;81.15
68943;DHT22;60852;52.190;4.422;2023-02-21T18:44:33;9.99;81.11
68943;DHT22;60852;52.190;4.422;2023-02-21T18:46:58;10.02;81.29
68943;DHT22;60852;52.190;4.422;2023-02-21T18:49:26;10.07;80.99
68943;DHT22;60852;52.190;4.422;2023-02-21T18:51:52;10.02;80.59
68943;DHT22;60852;52.190;4.422;2023-02-21T18:54:19;10.03;80.64
68943;DHT22;60852;52.190;4.422;2023-02-21T18:56:46;9.97;80.22